Observations for BARCELONA AIRPORT, Spain (LEBL)

LEBL 242030Z 18002KT 9999 FEW025 16/13 Q1016 NOSIG  
LEBL 242000Z VRB01KT 9999 FEW025 16/13 Q1016 NOSIG  
LEBL 241930Z VRB02KT 9999 FEW025 16/13 Q1016 NOSIG  
LEBL 241900Z 19003KT 160V220 9999 FEW025 16/13 Q1015 NOSIG  
LEBL 241830Z 20004KT 160V220 9999 FEW035 16/13 Q1015 NOSIG  
LEBL 241800Z 20006KT 9999 FEW030 17/13 Q1015 NOSIG  
LEBL 241730Z 19007KT 170V230 CAVOK 17/13 Q1015 NOSIG
LEBL 241700Z 19008KT CAVOK 17/13 Q1016 NOSIG
LEBL 241630Z 20009KT 170V230 CAVOK 17/13 Q1016 NOSIG
LEBL 241600Z 20008KT 160V230 CAVOK 18/13 Q1016 NOSIG
LEBL 241530Z 20009KT 160V240 CAVOK 17/13 Q1016 NOSIG
LEBL 241500Z 19010KT 160V220 CAVOK 17/12 Q1016 NOSIG
LEBL 241430Z 19011KT 160V220 CAVOK 18/13 Q1016 NOSIG
LEBL 241400Z 19011KT 150V220 CAVOK 18/13 Q1017 NOSIG
LEBL 241330Z 19010KT 160V220 CAVOK 18/13 Q1017 NOSIG
LEBL 241300Z 19010KT 140V220 CAVOK 18/13 Q1017 NOSIG
LEBL 241230Z 20011KT 160V220 CAVOK 17/12 Q1017 NOSIG
LEBL 241200Z 20009KT 150V230 CAVOK 17/12 Q1017 NOSIG
LEBL 241130Z 21011KT 180V240 CAVOK 18/12 Q1017 NOSIG
LEBL 241030Z 21011KT CAVOK 17/12 Q1018 NOSIG
LEBL 241000Z 21011KT CAVOK 17/11 Q1018 NOSIG
LEBL 240930Z 21009KT CAVOK 17/12 Q1018 NOSIG
LEBL 240900Z 21011KT CAVOK 17/12 Q1018 NOSIG
LEBL 240830Z 22011KT 190V250 CAVOK 17/12 Q1017 NOSIG
LEBL 240800Z 22007KT 190V250 CAVOK 17/12 Q1017 NOSIG
LEBL 240730Z 29003KT 240V340 CAVOK 15/10 Q1017 NOSIG
LEBL 240700Z 31004KT CAVOK 14/07 Q1017 NOSIG
LEBL 240630Z 31004KT CAVOK 13/07 Q1017 NOSIG
LEBL 240600Z 32004KT 240V350 CAVOK 12/07 Q1017 NOSIG
LEBL 240530Z 33004KT CAVOK 11/06 Q1017 NOSIG
LEBL 240500Z 30005KT CAVOK 11/07 Q1016 NOSIG
LEBL 240430Z 30004KT 260V320 CAVOK 11/07 Q1016 NOSIG
LEBL 240400Z 29004KT CAVOK 11/08 Q1016 NOSIG
LEBL 240330Z 32005KT CAVOK 11/07 Q1016 NOSIG
LEBL 240300Z 31004KT CAVOK 11/07 Q1017 NOSIG
LEBL 240230Z 30004KT CAVOK 11/08 Q1017 NOSIG
LEBL 240200Z 31005KT CAVOK 12/09 Q1017 NOSIG
LEBL 240130Z 31006KT CAVOK 12/09 Q1017 NOSIG
LEBL 240100Z 31005KT CAVOK 12/08 Q1017 NOSIG
LEBL 240030Z 33007KT CAVOK 13/08 Q1017 NOSIG
LEBL 240000Z 31005KT CAVOK 13/09 Q1018 NOSIG
LEBL 232330Z 30005KT 260V330 CAVOK 13/08 Q1018 NOSIG
LEBL 232300Z 24008KT CAVOK 14/11 Q1018 NOSIG
LEBL 232230Z 24008KT CAVOK 15/12 Q1018 NOSIG
LEBL 232200Z 23009KT CAVOK 15/12 Q1018 NOSIG
LEBL 232130Z 23010KT CAVOK 15/12 Q1018 NOSIG
LEBL 232100Z 23010KT CAVOK 15/12 Q1018 NOSIG
LEBL 232030Z 22009KT CAVOK 15/12 Q1018 NOSIG
LEBL 232000Z 22007KT CAVOK 15/13 Q1018 NOSIG